Uvalde Research's Hourly Summary for Thursday, March 16, 2017
Hour Temp
(f)
RH
(%)
Solar Rad.
(MJ/m2)
Rainfall
(in)
Wind
(mph)
3/16/2017 12:00 AM 61 87 0 0 2.64
3/16/2017 1:00 AM 61 89 0 0 2.42
3/16/2017 2:00 AM 62 90 0 0 2.8
3/16/2017 3:00 AM 62 91 0 0 3.02
3/16/2017 4:00 AM 62 92 0 0 2.99
3/16/2017 5:00 AM 62 93 0 0 2.61
3/16/2017 6:00 AM 62 93 0 0 2.82
3/16/2017 7:00 AM 62 94 0 0 2.75
3/16/2017 8:00 AM 63 94 0.08 0 3.21
3/16/2017 9:00 AM 63 94 0.21 0 3.23
3/16/2017 10:00 AM 64 92 0.41 0 3.49
3/16/2017 11:00 AM 66 90 0.59 0 3.36
3/16/2017 12:00 PM 67 87 0.85 0 3.07
3/16/2017 1:00 PM 70 80 1.01 0 2.78
3/16/2017 2:00 PM 74 68 1.83 0 4.6
3/16/2017 3:00 PM 75 63 1.65 0 4.13
3/16/2017 4:00 PM 77 59 1.52 0 4.25
3/16/2017 5:00 PM 78 56 1.26 0 4.54
3/16/2017 6:00 PM 78 56 0.63 0 4.24
3/16/2017 7:00 PM 75 60 0.05 0 3.05
3/16/2017 8:00 PM 71 68 0 0 1.52
3/16/2017 9:00 PM 69 72 0 0 1.69
3/16/2017 10:00 PM 67 79 0 0 2.78
3/16/2017 11:00 PM 66 87 0 0 2.56
Data Summary 67 80 10.09 0.00 3.11